createdAt,value
2018-12-20T00:00:57.644Z,29.00
2018-12-20T00:01:57.629Z,30.00
2018-12-20T00:02:57.583Z,29.60
2018-12-20T00:03:57.777Z,28.90
2018-12-20T00:04:57.550Z,29.40
2018-12-20T00:05:57.554Z,29.80
2018-12-20T00:06:57.558Z,29.10
2018-12-20T00:07:57.520Z,30.40
2018-12-20T00:09:06.379Z,29.50
2018-12-20T00:10:07.940Z,30.50
2018-12-20T00:11:06.498Z,29.40
2018-12-20T00:12:07.050Z,30.00
2018-12-20T00:13:05.565Z,30.20
2018-12-20T00:13:57.446Z,30.20
2018-12-20T00:14:57.483Z,29.40
2018-12-20T00:15:57.493Z,30.60
2018-12-20T00:16:57.522Z,30.00
2018-12-20T00:17:57.468Z,30.00
2018-12-20T00:18:57.523Z,30.50
2018-12-20T00:21:15.438Z,30.10
2018-12-20T00:22:22.865Z,30.40
2018-12-20T00:23:24.567Z,30.90
2018-12-20T00:24:15.386Z,31.50
2018-12-20T00:25:15.189Z,30.30
2018-12-20T00:26:15.207Z,30.10
2018-12-20T00:27:15.131Z,31.00
2018-12-20T00:28:15.217Z,31.80
2018-12-20T00:29:15.127Z,31.00
2018-12-20T00:30:15.143Z,30.00
2018-12-20T00:31:15.486Z,29.60
2018-12-20T00:32:15.122Z,31.30
2018-12-20T00:33:15.089Z,31.60
2018-12-20T00:34:15.126Z,31.20
2018-12-20T00:35:15.077Z,30.50
2018-12-20T00:36:15.191Z,30.10
2018-12-20T00:37:15.101Z,30.30
2018-12-20T00:38:15.042Z,30.80
2018-12-20T00:39:15.197Z,31.50
2018-12-20T00:40:24.485Z,30.80
2018-12-20T00:41:15.113Z,31.00
2018-12-20T00:42:24.701Z,30.70
2018-12-20T00:43:15.072Z,31.40
2018-12-20T00:44:15.016Z,31.20
2018-12-20T00:45:15.009Z,30.30
2018-12-20T00:46:24.138Z,29.80
2018-12-20T00:47:24.315Z,30.80
2018-12-20T00:48:24.311Z,31.80
2018-12-20T00:49:23.784Z,31.50
2018-12-20T00:50:25.214Z,31.40
2018-12-20T00:51:25.367Z,31.60
2018-12-20T00:52:24.301Z,30.80
2018-12-20T00:53:24.392Z,30.70
2018-12-20T00:54:14.934Z,31.30
2018-12-20T00:55:14.888Z,31.40
2018-12-20T00:56:14.891Z,31.10
2018-12-20T00:57:14.871Z,31.20
2018-12-20T00:58:14.845Z,31.40
2018-12-20T00:59:14.893Z,31.10
2018-12-20T01:00:14.949Z,31.60
2018-12-20T01:01:15.205Z,31.40
2018-12-20T01:02:14.894Z,31.60
2018-12-20T01:03:14.855Z,31.10
2018-12-20T01:04:14.877Z,30.80
2018-12-20T01:05:14.999Z,31.30
2018-12-20T01:06:14.969Z,31.40
2018-12-20T01:07:14.746Z,31.80
2018-12-20T01:08:14.982Z,30.90
2018-12-20T01:09:14.795Z,31.50
2018-12-20T01:10:15.038Z,31.90
2018-12-20T01:11:14.833Z,32.10
2018-12-20T01:12:14.859Z,31.00
2018-12-20T01:13:14.681Z,31.20
2018-12-20T01:14:14.664Z,31.10
2018-12-20T01:15:14.996Z,31.30
2018-12-20T01:16:14.835Z,30.90
2018-12-20T01:17:14.923Z,31.10
2018-12-20T01:18:14.780Z,31.30
2018-12-20T01:19:14.699Z,31.50
2018-12-20T01:20:14.742Z,31.80
2018-12-20T01:21:14.710Z,31.70
2018-12-20T01:22:14.680Z,31.50
2018-12-20T01:23:14.808Z,31.80
2018-12-20T01:24:15.175Z,31.90
2018-12-20T01:25:14.581Z,31.80
2018-12-20T01:26:14.558Z,31.70
2018-12-20T01:27:14.723Z,32.20
2018-12-20T01:28:14.556Z,31.80
2018-12-20T01:29:14.679Z,31.90
2018-12-20T01:30:14.614Z,32.00
2018-12-20T01:31:14.637Z,31.60
2018-12-20T01:32:14.524Z,31.90
2018-12-20T01:33:14.453Z,32.20
2018-12-20T01:34:14.549Z,32.70
2018-12-20T01:35:14.459Z,32.30
2018-12-20T01:36:14.456Z,32.50
2018-12-20T01:37:14.440Z,31.50
2018-12-20T01:38:14.522Z,32.30
2018-12-20T01:39:14.428Z,32.40
2018-12-20T01:40:14.401Z,32.60
2018-12-20T01:41:14.357Z,31.90
2018-12-20T01:42:14.563Z,32.30
2018-12-20T01:43:14.370Z,32.90
2018-12-20T01:44:14.390Z,33.10
2018-12-20T01:45:15.167Z,32.40
2018-12-20T01:46:14.377Z,32.90
2018-12-20T01:47:14.324Z,32.40
2018-12-20T01:48:14.442Z,33.30
2018-12-20T01:49:14.459Z,32.60
2018-12-20T01:50:14.592Z,33.50
2018-12-20T01:51:14.282Z,32.70
2018-12-20T01:52:15.332Z,32.40
2018-12-20T01:53:14.330Z,32.60
2018-12-20T01:54:14.323Z,33.20
2018-12-20T01:55:14.306Z,32.30
2018-12-20T01:56:14.234Z,33.50
2018-12-20T01:57:14.233Z,33.40
2018-12-20T01:58:14.221Z,33.20
2018-12-20T01:59:14.439Z,33.20
2018-12-20T02:00:14.325Z,32.90
2018-12-20T02:01:14.299Z,33.10
2018-12-20T02:02:14.373Z,32.80
2018-12-20T02:03:14.353Z,33.10
2018-12-20T02:04:14.682Z,33.60
2018-12-20T02:05:14.129Z,33.80
2018-12-20T02:06:14.149Z,33.00
2018-12-20T02:07:14.171Z,33.60
2018-12-20T02:08:14.096Z,32.50
2018-12-20T02:09:14.114Z,33.10
2018-12-20T02:10:14.141Z,33.30
2018-12-20T02:11:14.127Z,33.50
2018-12-20T02:12:14.177Z,32.90
2018-12-20T02:13:14.100Z,33.20
2018-12-20T02:14:14.064Z,32.60
2018-12-20T02:15:14.061Z,32.50
2018-12-20T02:16:14.173Z,33.20
2018-12-20T02:17:14.109Z,33.70
2018-12-20T02:18:14.175Z,33.40
2018-12-20T02:19:14.055Z,33.20
2018-12-20T02:20:14.035Z,33.70
2018-12-20T02:21:14.135Z,33.30
2018-12-20T02:22:13.946Z,34.20
2018-12-20T02:23:14.023Z,33.20
2018-12-20T02:24:13.949Z,33.40
2018-12-20T02:25:13.901Z,33.70
2018-12-20T02:26:13.912Z,33.70
2018-12-20T02:27:14.059Z,33.80
2018-12-20T02:28:14.039Z,32.90
2018-12-20T02:29:14.207Z,33.40
2018-12-20T02:30:13.923Z,34.50
2018-12-20T02:31:14.069Z,34.40
2018-12-20T02:32:13.898Z,34.00
2018-12-20T02:33:14.213Z,35.10
2018-12-20T02:34:14.010Z,34.30
2018-12-20T02:35:14.109Z,34.00
2018-12-20T02:36:13.941Z,34.10
2018-12-20T02:37:13.815Z,33.60
2018-12-20T02:38:13.806Z,34.30
2018-12-20T02:39:13.915Z,34.40
2018-12-20T02:40:13.840Z,34.20
2018-12-20T02:41:13.766Z,34.00
2018-12-20T02:42:13.912Z,34.20
2018-12-20T02:43:13.731Z,34.30
2018-12-20T02:44:13.837Z,34.10
2018-12-20T02:45:13.903Z,34.20
2018-12-20T02:46:13.730Z,34.80
2018-12-20T02:47:13.723Z,34.80
2018-12-20T02:48:13.710Z,34.70
2018-12-20T02:49:13.832Z,34.70
2018-12-20T02:50:13.768Z,34.40
2018-12-20T02:51:13.668Z,33.90
2018-12-20T02:52:13.694Z,34.80
2018-12-20T02:53:13.848Z,33.10
2018-12-20T02:54:13.747Z,35.10
2018-12-20T02:55:13.617Z,34.10
2018-12-20T02:56:13.666Z,35.00
2018-12-20T02:57:13.653Z,34.60
2018-12-20T02:58:13.664Z,35.00
2018-12-20T02:59:13.641Z,35.50
2018-12-20T03:00:13.656Z,35.50
2018-12-20T03:01:13.552Z,35.00
2018-12-20T03:02:13.651Z,35.00
2018-12-20T03:03:13.813Z,35.50
2018-12-20T03:04:13.523Z,34.50
2018-12-20T03:05:13.564Z,34.80
2018-12-20T03:06:13.627Z,35.00
2018-12-20T03:07:13.629Z,35.70
2018-12-20T03:08:13.497Z,34.90
2018-12-20T03:09:13.523Z,35.30
2018-12-20T03:10:13.593Z,35.80
2018-12-20T03:11:13.496Z,34.70
2018-12-20T03:12:13.662Z,35.40
2018-12-20T03:13:13.607Z,36.20
2018-12-20T03:14:21.893Z,36.10
2018-12-20T03:15:23.984Z,36.00
2018-12-20T03:16:13.473Z,36.20
2018-12-20T03:17:13.574Z,36.20
2018-12-20T03:19:30.638Z,35.80
2018-12-20T03:20:30.549Z,36.00
2018-12-20T03:21:30.451Z,36.70
2018-12-20T03:22:30.539Z,37.00
2018-12-20T03:25:00.341Z,35.50
2018-12-20T03:26:00.207Z,35.70
2018-12-20T03:27:00.372Z,35.90
2018-12-20T03:28:00.519Z,34.80
2018-12-20T03:29:00.211Z,36.90
2018-12-20T03:30:00.264Z,35.10
2018-12-20T03:31:00.307Z,35.20
2018-12-20T03:32:09.608Z,36.60
2018-12-20T03:33:00.479Z,36.40
2018-12-20T03:34:00.166Z,36.00
2018-12-20T03:35:00.103Z,35.50
2018-12-20T03:36:00.073Z,36.10
2018-12-20T03:37:00.235Z,36.00
2018-12-20T03:38:00.213Z,36.60
2018-12-20T03:39:00.214Z,36.70
2018-12-20T03:40:00.197Z,36.70
2018-12-20T03:41:00.157Z,35.80
2018-12-20T03:41:59.961Z,36.20
2018-12-20T03:42:59.991Z,36.80
2018-12-20T03:43:59.964Z,35.40
2018-12-20T03:45:00.105Z,36.60
2018-12-20T03:46:00.164Z,36.50
2018-12-20T03:47:00.073Z,37.10
2018-12-20T03:48:00.084Z,36.00
2018-12-20T03:49:00.026Z,37.10
2018-12-20T03:49:59.923Z,36.30
2018-12-20T03:51:00.098Z,36.70
2018-12-20T03:51:59.975Z,37.10
2018-12-20T03:52:59.946Z,36.40
2018-12-20T03:53:59.929Z,36.50
2018-12-20T03:54:59.984Z,36.70
2018-12-20T03:55:59.973Z,36.50
2018-12-20T03:56:59.855Z,37.30
2018-12-20T03:57:59.837Z,36.20
2018-12-20T03:59:00.087Z,37.80
2018-12-20T03:59:59.785Z,36.90
2018-12-20T04:00:59.983Z,37.00
2018-12-20T04:01:59.782Z,37.00
2018-12-20T04:02:59.827Z,37.60
2018-12-20T04:03:59.850Z,37.80
2018-12-20T04:04:59.951Z,36.90
2018-12-20T04:05:59.803Z,37.40
2018-12-20T04:06:59.715Z,38.30
2018-12-20T04:07:59.699Z,38.20
2018-12-20T04:08:59.845Z,38.90
2018-12-20T04:09:59.713Z,38.30
2018-12-20T04:10:59.855Z,39.00
2018-12-20T04:11:59.757Z,39.50
2018-12-20T04:12:59.642Z,38.90
2018-12-20T04:13:59.647Z,39.80
2018-12-20T04:14:59.750Z,39.20
2018-12-20T04:15:59.855Z,39.20
2018-12-20T04:16:59.655Z,39.30
2018-12-20T04:17:59.602Z,38.80
2018-12-20T04:18:59.822Z,39.70
2018-12-20T04:19:59.570Z,39.40
2018-12-20T04:20:59.608Z,38.90
2018-12-20T04:21:59.576Z,40.10
2018-12-20T04:22:59.532Z,38.50
2018-12-20T04:23:59.764Z,39.10
2018-12-20T04:24:59.552Z,39.50
2018-12-20T04:25:59.561Z,40.10
2018-12-20T04:26:59.523Z,40.00
2018-12-20T04:27:59.600Z,39.40
2018-12-20T04:28:59.508Z,39.40
2018-12-20T04:29:59.577Z,40.00
2018-12-20T04:30:59.546Z,40.90
2018-12-20T04:31:59.682Z,40.30
2018-12-20T04:32:59.436Z,39.80
2018-12-20T04:33:59.514Z,39.40
2018-12-20T04:34:59.606Z,40.00
2018-12-20T04:35:59.506Z,39.90
2018-12-20T04:36:59.425Z,39.80
2018-12-20T04:37:59.418Z,40.30
2018-12-20T04:38:59.598Z,39.60
2018-12-20T04:39:59.663Z,39.20
2018-12-20T04:40:59.459Z,40.00
2018-12-20T04:41:59.443Z,40.30
2018-12-20T04:42:59.400Z,40.00
2018-12-20T04:43:59.338Z,39.90
2018-12-20T04:44:59.366Z,40.00
2018-12-20T04:45:59.429Z,40.90
2018-12-20T04:46:59.698Z,40.50
2018-12-20T04:47:59.423Z,40.30
2018-12-20T04:48:59.484Z,40.10
2018-12-20T04:49:59.491Z,41.00
2018-12-20T04:50:59.438Z,39.70
2018-12-20T04:51:59.612Z,40.30
2018-12-20T04:52:59.266Z,40.50
2018-12-20T04:53:59.229Z,40.20
2018-12-20T04:54:59.324Z,39.90
2018-12-20T04:55:59.244Z,40.30
2018-12-20T04:56:59.417Z,40.80
2018-12-20T04:57:59.212Z,39.80
2018-12-20T04:58:59.185Z,39.70
2018-12-20T04:59:59.234Z,40.60
2018-12-20T05:00:59.157Z,41.10
2018-12-20T05:01:59.141Z,40.80
2018-12-20T05:02:59.132Z,41.00
2018-12-20T05:03:59.343Z,40.10
2018-12-20T05:04:59.120Z,40.60
2018-12-20T05:05:59.143Z,40.90
2018-12-20T05:06:59.279Z,41.00
2018-12-20T05:07:59.319Z,41.00
2018-12-20T05:08:59.069Z,40.70
2018-12-20T05:09:59.353Z,41.10
2018-12-20T05:10:59.064Z,40.00
2018-12-20T05:11:59.116Z,42.00
2018-12-20T05:12:59.052Z,41.00
2018-12-20T05:13:59.221Z,41.80
2018-12-20T05:14:59.044Z,41.00
2018-12-20T05:15:58.987Z,41.60
2018-12-20T05:16:59.143Z,39.80
2018-12-20T05:17:59.011Z,40.50
2018-12-20T05:18:59.231Z,40.80
2018-12-20T05:19:59.032Z,40.50
2018-12-20T05:20:58.942Z,40.60
2018-12-20T05:21:58.959Z,40.50
2018-12-20T05:22:58.948Z,39.70
2018-12-20T05:23:58.933Z,40.20
2018-12-20T05:24:58.895Z,42.20
2018-12-20T05:25:59.225Z,40.80
2018-12-20T05:26:58.960Z,40.40
2018-12-20T05:27:58.887Z,40.80
2018-12-20T05:28:58.904Z,41.90
2018-12-20T05:29:58.942Z,40.10
2018-12-20T05:30:58.892Z,41.40
2018-12-20T05:31:59.059Z,39.90
2018-12-20T05:32:58.861Z,40.70
2018-12-20T05:33:59.101Z,40.90
2018-12-20T05:34:58.785Z,41.50
2018-12-20T05:35:58.805Z,41.40
2018-12-20T05:36:58.797Z,40.20
2018-12-20T05:37:58.960Z,40.50
2018-12-20T05:38:58.759Z,40.20
2018-12-20T05:39:58.968Z,40.80
2018-12-20T05:40:58.757Z,40.00
2018-12-20T05:41:59.196Z,40.00
2018-12-20T05:42:59.124Z,40.80
2018-12-20T05:43:58.781Z,40.40
2018-12-20T05:44:58.749Z,40.60
2018-12-20T05:46:04.458Z,41.00
2018-12-20T05:46:59.729Z,40.80
2018-12-20T05:47:58.923Z,39.10
2018-12-20T05:48:58.990Z,41.50
2018-12-20T05:49:58.889Z,40.40
2018-12-20T05:50:58.985Z,40.40
2018-12-20T05:51:58.733Z,40.80
2018-12-20T05:52:59.227Z,40.20
2018-12-20T05:53:58.788Z,40.30
2018-12-20T05:54:58.951Z,39.40
2018-12-20T05:55:58.851Z,41.20
2018-12-20T05:56:58.683Z,39.70
2018-12-20T05:57:58.647Z,39.00
2018-12-20T05:58:58.619Z,40.00
2018-12-20T05:59:58.707Z,40.30
2018-12-20T06:00:58.669Z,40.50
2018-12-20T06:01:58.575Z,39.80
2018-12-20T06:02:58.795Z,40.40
2018-12-20T06:03:58.580Z,40.80
2018-12-20T06:04:58.510Z,38.90
2018-12-20T06:05:58.517Z,39.20
2018-12-20T06:06:58.564Z,39.80
2018-12-20T06:07:58.747Z,39.50
2018-12-20T06:08:58.653Z,40.50
2018-12-20T06:09:58.441Z,39.90
2018-12-20T06:10:58.654Z,40.20
2018-12-20T06:11:58.544Z,39.80
2018-12-20T06:12:58.704Z,39.60
2018-12-20T06:13:58.751Z,39.60
2018-12-20T06:14:58.534Z,39.50
2018-12-20T06:15:58.455Z,40.10
2018-12-20T06:16:59.213Z,39.00
2018-12-20T06:17:58.549Z,39.70
2018-12-20T06:18:58.392Z,39.80
2018-12-20T06:19:58.445Z,39.50
2018-12-20T06:20:58.342Z,39.20
2018-12-20T06:21:58.381Z,40.30
2018-12-20T06:22:59.465Z,39.50
2018-12-20T06:23:58.322Z,39.50
2018-12-20T06:24:58.524Z,40.00
2018-12-20T06:25:58.295Z,39.30
2018-12-20T06:26:58.310Z,39.10
2018-12-20T06:27:58.288Z,39.80
2018-12-20T06:28:58.260Z,39.60
2018-12-20T06:29:58.313Z,39.60
2018-12-20T06:30:58.283Z,39.20
2018-12-20T06:31:58.252Z,39.80
2018-12-20T06:32:58.225Z,39.90
2018-12-20T06:33:58.243Z,38.70
2018-12-20T06:34:58.188Z,39.50
2018-12-20T06:35:58.727Z,39.80
2018-12-20T06:36:58.185Z,39.00
2018-12-20T06:37:58.214Z,40.40
2018-12-20T06:38:58.139Z,39.80
2018-12-20T06:39:58.128Z,38.60
2018-12-20T06:40:58.123Z,40.90
2018-12-20T06:41:58.104Z,40.80
2018-12-20T06:42:58.153Z,40.50
2018-12-20T06:43:58.079Z,40.40
2018-12-20T06:44:58.124Z,40.00
2018-12-20T06:45:58.100Z,39.90
2018-12-20T06:46:58.076Z,40.10
2018-12-20T06:47:58.068Z,39.70
2018-12-20T06:48:58.083Z,40.50
2018-12-20T06:49:58.060Z,39.40
2018-12-20T06:50:58.035Z,40.20
2018-12-20T06:51:58.019Z,40.40
2018-12-20T06:52:58.009Z,39.00
2018-12-20T06:53:58.034Z,40.50
2018-12-20T06:54:58.012Z,40.70
2018-12-20T06:55:57.990Z,40.30
2018-12-20T06:56:57.984Z,40.50
2018-12-20T06:57:57.967Z,40.40
2018-12-20T06:58:57.941Z,40.70
2018-12-20T06:59:57.952Z,40.80
2018-12-20T07:00:57.936Z,39.70
2018-12-20T07:01:57.898Z,40.50
2018-12-20T07:02:57.909Z,40.60
2018-12-20T07:03:57.917Z,39.40
2018-12-20T07:04:58.349Z,40.40
2018-12-20T07:05:57.871Z,38.90
2018-12-20T07:06:57.854Z,39.40
2018-12-20T07:07:57.845Z,40.30
2018-12-20T07:08:57.847Z,41.20
2018-12-20T07:09:57.830Z,40.40
2018-12-20T07:10:57.894Z,40.30
2018-12-20T07:11:57.806Z,41.00
2018-12-20T07:12:57.797Z,40.50
2018-12-20T07:13:57.777Z,41.20
2018-12-20T07:14:57.869Z,40.40
2018-12-20T07:15:57.760Z,42.10
2018-12-20T07:16:57.763Z,41.60
2018-12-20T07:17:57.768Z,42.30
2018-12-20T07:18:57.749Z,41.90
2018-12-20T07:19:57.705Z,41.50
2018-12-20T07:20:57.743Z,42.50
2018-12-20T07:21:57.697Z,42.40
2018-12-20T07:22:57.693Z,41.80
2018-12-20T07:23:57.711Z,41.80
2018-12-20T07:24:57.688Z,41.50
2018-12-20T07:25:57.673Z,42.50
2018-12-20T07:26:57.700Z,41.90
2018-12-20T07:27:57.622Z,42.50
2018-12-20T07:28:57.646Z,43.20
2018-12-20T07:29:57.608Z,42.00
2018-12-20T07:30:57.603Z,42.50
2018-12-20T07:31:57.606Z,41.40
2018-12-20T07:32:57.607Z,41.80
2018-12-20T07:33:57.572Z,41.90
2018-12-20T07:34:57.581Z,41.80
2018-12-20T07:35:57.546Z,42.50
2018-12-20T07:36:57.574Z,41.60
2018-12-20T07:37:57.557Z,41.20
2018-12-20T07:38:57.531Z,43.00
2018-12-20T07:39:57.514Z,42.00
2018-12-20T07:40:57.500Z,41.50
2018-12-20T07:41:57.478Z,41.70
2018-12-20T07:42:57.503Z,41.60
2018-12-20T07:43:57.472Z,41.20
2018-12-20T07:44:57.456Z,40.10
2018-12-20T07:45:57.437Z,40.80
2018-12-20T07:46:57.430Z,40.80
2018-12-20T07:47:57.456Z,41.30
2018-12-20T07:48:57.454Z,41.50
2018-12-20T07:49:57.406Z,40.90
2018-12-20T07:50:57.434Z,40.60
2018-12-20T07:51:57.412Z,40.00
2018-12-20T07:52:57.447Z,39.90
2018-12-20T07:53:57.358Z,40.80
2018-12-20T07:54:57.375Z,41.20
2018-12-20T07:55:57.448Z,40.90
2018-12-20T07:56:57.341Z,40.20
2018-12-20T07:57:57.334Z,41.40
2018-12-20T07:58:57.316Z,40.10
2018-12-20T07:59:57.314Z,40.70
2018-12-20T08:00:57.298Z,40.50
2018-12-20T08:01:57.279Z,40.80
2018-12-20T08:02:57.285Z,41.30
2018-12-20T08:03:57.301Z,41.50
2018-12-20T08:04:57.239Z,42.00
2018-12-20T08:05:57.249Z,40.50
2018-12-20T08:06:57.234Z,40.60
2018-12-20T08:07:57.236Z,40.30
2018-12-20T08:08:57.248Z,39.10
2018-12-20T08:09:57.177Z,39.00
2018-12-20T08:10:57.223Z,38.40
2018-12-20T08:11:57.172Z,37.90
2018-12-20T08:12:57.180Z,39.30
2018-12-20T08:13:57.225Z,39.00
2018-12-20T08:14:57.138Z,39.60
2018-12-20T08:15:57.140Z,40.10
2018-12-20T08:16:57.114Z,39.30
2018-12-20T08:17:57.127Z,39.50
2018-12-20T08:18:57.175Z,38.70
2018-12-20T08:19:57.092Z,38.10
2018-12-20T08:20:57.115Z,37.70
2018-12-20T08:21:57.130Z,39.20
2018-12-20T08:22:57.080Z,38.10
2018-12-20T08:23:57.036Z,38.10
2018-12-20T08:24:57.043Z,38.20
2018-12-20T08:25:57.024Z,38.50
2018-12-20T08:26:57.011Z,37.60
2018-12-20T08:27:57.099Z,37.30
2018-12-20T08:28:57.028Z,37.20
2018-12-20T08:29:56.977Z,37.90
2018-12-20T08:30:56.988Z,36.80
2018-12-20T08:31:56.986Z,37.60
2018-12-20T08:32:57.043Z,37.20
2018-12-20T08:33:57.871Z,37.60
2018-12-20T08:34:57.791Z,36.90
2018-12-20T08:35:57.842Z,37.20
2018-12-20T08:36:57.813Z,37.60
2018-12-20T08:37:56.925Z,37.10
2018-12-20T08:38:57.074Z,36.60
2018-12-20T08:39:56.933Z,36.50
2018-12-20T08:40:56.917Z,36.60
2018-12-20T08:41:57.022Z,36.50
2018-12-20T08:42:56.876Z,36.50
2018-12-20T08:43:56.872Z,37.60
2018-12-20T08:44:56.881Z,36.50
2018-12-20T08:45:56.837Z,35.90
2018-12-20T08:46:56.806Z,36.40
2018-12-20T08:47:56.814Z,36.70
2018-12-20T08:48:56.787Z,36.50
2018-12-20T08:49:56.813Z,36.70
2018-12-20T08:50:56.803Z,36.70
2018-12-20T08:51:56.766Z,36.80
2018-12-20T08:52:56.769Z,36.90
2018-12-20T08:53:56.784Z,36.60
2018-12-20T08:54:56.742Z,35.90
2018-12-20T08:55:56.771Z,36.20
2018-12-20T08:56:56.692Z,35.70
2018-12-20T08:57:56.734Z,36.40
2018-12-20T08:58:56.692Z,35.90
2018-12-20T08:59:56.714Z,36.50
2018-12-20T09:00:56.717Z,36.80
2018-12-20T09:01:56.780Z,35.90
2018-12-20T09:02:56.680Z,36.00
2018-12-20T09:03:56.617Z,36.30
2018-12-20T09:04:56.667Z,35.80
2018-12-20T09:05:56.625Z,34.90
2018-12-20T09:06:56.576Z,36.30
2018-12-20T09:07:56.644Z,35.80
2018-12-20T09:08:56.685Z,36.10
2018-12-20T09:09:56.563Z,36.10
2018-12-20T09:10:57.535Z,35.90
2018-12-20T09:12:05.336Z,34.60
2018-12-20T09:12:56.530Z,36.20
2018-12-20T09:13:56.510Z,36.10
2018-12-20T09:14:56.509Z,35.40
2018-12-20T09:15:56.504Z,35.80
2018-12-20T09:17:02.881Z,35.10
2018-12-20T09:17:57.481Z,35.70
2018-12-20T09:18:56.478Z,36.20
2018-12-20T09:19:56.460Z,35.50
2018-12-20T09:20:56.430Z,35.20
2018-12-20T09:21:56.455Z,36.10
2018-12-20T09:22:56.435Z,35.00
2018-12-20T09:23:56.449Z,36.00
2018-12-20T09:24:56.388Z,35.80
2018-12-20T09:25:56.408Z,35.90
2018-12-20T09:26:56.372Z,36.30
2018-12-20T09:27:56.395Z,34.90
2018-12-20T09:28:56.377Z,34.90
2018-12-20T09:29:56.354Z,35.00
2018-12-20T09:30:56.340Z,35.50
2018-12-20T09:31:56.316Z,35.40
2018-12-20T09:32:56.380Z,35.70
2018-12-20T09:33:56.364Z,35.70
2018-12-20T09:34:56.303Z,35.40
2018-12-20T09:35:56.302Z,35.20
2018-12-20T09:36:56.268Z,34.70
2018-12-20T09:37:56.250Z,35.40
2018-12-20T09:38:56.249Z,35.70
2018-12-20T09:39:56.410Z,35.70
2018-12-20T09:40:56.234Z,35.00
2018-12-20T09:41:56.240Z,35.50
2018-12-20T09:42:56.200Z,34.90
2018-12-20T09:43:56.208Z,35.50
2018-12-20T09:44:56.186Z,34.50
2018-12-20T09:45:56.185Z,35.60
2018-12-20T09:46:56.217Z,34.90
2018-12-20T09:47:56.177Z,34.80
2018-12-20T09:48:56.145Z,34.90
2018-12-20T09:49:56.169Z,34.10
2018-12-20T09:50:56.155Z,34.20
2018-12-20T09:51:56.107Z,35.20
2018-12-20T09:52:56.107Z,35.50
2018-12-20T09:53:56.084Z,35.70
2018-12-20T09:55:05.451Z,34.60
2018-12-20T09:55:56.154Z,34.60
2018-12-20T09:56:56.078Z,36.70
2018-12-20T09:57:56.066Z,35.80
2018-12-20T09:58:56.082Z,35.00
2018-12-20T09:59:56.062Z,35.40
2018-12-20T10:00:56.097Z,36.20
2018-12-20T10:01:56.173Z,34.70
2018-12-20T10:02:56.013Z,34.70
2018-12-20T10:03:56.009Z,35.40
2018-12-20T10:04:56.022Z,34.80
2018-12-20T10:05:56.038Z,35.00
2018-12-20T10:06:56.043Z,35.00
2018-12-20T10:07:55.982Z,34.80
2018-12-20T10:08:55.977Z,35.20
2018-12-20T10:09:56.012Z,35.30
2018-12-20T10:10:55.958Z,35.10
2018-12-20T10:11:55.927Z,35.00
2018-12-20T10:12:55.930Z,34.80
2018-12-20T10:13:55.914Z,35.60
2018-12-20T10:14:55.910Z,35.80
2018-12-20T10:16:04.975Z,35.20
2018-12-20T10:17:04.526Z,35.70
2018-12-20T10:18:04.567Z,35.80
2018-12-20T10:20:12.957Z,34.20
2018-12-20T10:21:23.295Z,34.70
2018-12-20T10:22:22.355Z,34.60
2018-12-20T10:23:21.874Z,35.20
2018-12-20T10:24:12.870Z,34.70
2018-12-20T10:25:12.896Z,34.30
2018-12-20T10:26:12.863Z,34.80
2018-12-20T10:27:12.903Z,35.00
2018-12-20T10:31:20.238Z,35.20
2018-12-20T10:32:20.024Z,34.30
2018-12-20T10:33:19.974Z,34.90
2018-12-20T10:34:21.002Z,34.60
2018-12-20T10:35:19.908Z,34.50
2018-12-20T10:36:19.999Z,35.80
2018-12-20T10:37:20.205Z,36.10
2018-12-20T10:38:20.730Z,35.50
2018-12-20T10:39:20.759Z,35.40
2018-12-20T10:40:19.959Z,35.90
2018-12-20T10:41:20.272Z,36.30
2018-12-20T10:42:19.916Z,35.50
2018-12-20T10:44:31.017Z,33.80
2018-12-20T10:45:33.411Z,34.50
2018-12-20T10:46:31.005Z,35.10
2018-12-20T10:47:31.000Z,34.60
2018-12-20T10:48:31.181Z,35.10
2018-12-20T10:49:31.744Z,35.00
2018-12-20T10:50:31.009Z,35.30
2018-12-20T10:51:31.368Z,34.00
2018-12-20T10:52:30.945Z,34.40
2018-12-20T10:53:30.944Z,35.10
2018-12-20T10:54:30.900Z,34.80
2018-12-20T10:55:30.863Z,34.30
2018-12-20T10:56:31.056Z,35.50
2018-12-20T10:57:30.933Z,35.00
2018-12-20T10:58:30.813Z,34.20
2018-12-20T10:59:31.560Z,35.10
2018-12-20T11:00:30.894Z,34.80
2018-12-20T11:01:30.811Z,35.80
2018-12-20T11:02:30.952Z,34.70
2018-12-20T11:03:31.292Z,35.40
2018-12-20T11:04:31.083Z,34.90
2018-12-20T11:05:30.852Z,34.50
2018-12-20T11:06:30.772Z,34.40
2018-12-20T11:07:31.061Z,34.70
2018-12-20T11:08:31.056Z,34.60
2018-12-20T11:09:30.774Z,34.10
2018-12-20T11:10:31.103Z,35.40
2018-12-20T11:11:30.931Z,34.10
2018-12-20T11:12:30.720Z,33.90
2018-12-20T11:13:30.748Z,34.90
2018-12-20T11:14:31.213Z,33.60
2018-12-20T11:15:30.815Z,34.30
2018-12-20T11:16:30.712Z,34.10
2018-12-20T11:17:37.391Z,33.90
2018-12-20T11:18:31.819Z,34.30
2018-12-20T11:19:30.705Z,33.50
2018-12-20T11:20:30.646Z,33.00
2018-12-20T11:21:30.724Z,33.80
2018-12-20T11:22:30.666Z,34.10
2018-12-20T11:23:30.659Z,34.40
2018-12-20T11:24:30.731Z,34.90
2018-12-20T11:25:30.668Z,35.40
2018-12-20T11:26:30.615Z,35.00
2018-12-20T11:27:30.658Z,34.60
2018-12-20T11:28:30.600Z,35.00
2018-12-20T11:29:30.581Z,35.40
2018-12-20T11:30:30.818Z,34.90
2018-12-20T11:31:30.576Z,35.30
2018-12-20T11:32:30.498Z,35.30
2018-12-20T11:33:30.529Z,35.40
2018-12-20T11:34:30.589Z,35.50
2018-12-20T11:35:30.568Z,34.80
2018-12-20T11:36:30.570Z,34.70
2018-12-20T11:37:30.463Z,34.20
2018-12-20T11:38:30.463Z,34.40
2018-12-20T11:39:30.434Z,33.60
2018-12-20T11:40:30.428Z,34.10
2018-12-20T11:41:30.518Z,34.00
2018-12-20T11:42:30.615Z,33.90
2018-12-20T11:43:30.463Z,33.90
2018-12-20T11:44:30.520Z,34.50
2018-12-20T11:45:30.416Z,34.50
2018-12-20T11:46:30.386Z,33.90
2018-12-20T11:47:30.338Z,32.90
2018-12-20T11:48:30.343Z,33.60
2018-12-20T11:49:30.429Z,34.40
2018-12-20T11:50:30.706Z,34.20
2018-12-20T11:51:30.338Z,34.30
2018-12-20T11:52:30.325Z,34.20
2018-12-20T11:53:30.303Z,33.60
2018-12-20T11:54:30.351Z,33.10
2018-12-20T11:55:30.265Z,34.00
2018-12-20T11:56:30.355Z,34.40
2018-12-20T11:57:30.647Z,32.50
2018-12-20T11:58:30.301Z,33.30
2018-12-20T11:59:30.272Z,33.70
2018-12-20T12:00:30.298Z,33.80
2018-12-20T12:01:30.534Z,33.20
2018-12-20T12:02:30.296Z,32.70
2018-12-20T12:03:30.515Z,34.00
2018-12-20T12:04:30.416Z,33.50
2018-12-20T12:05:30.837Z,33.20
2018-12-20T12:06:31.357Z,32.80
2018-12-20T12:07:30.337Z,33.60
2018-12-20T12:08:30.426Z,33.60
2018-12-20T12:09:30.219Z,33.80
2018-12-20T12:10:30.502Z,33.60
2018-12-20T12:11:30.211Z,33.50
2018-12-20T12:12:30.264Z,33.10
2018-12-20T12:13:41.230Z,33.70
2018-12-20T12:14:30.177Z,33.50
2018-12-20T12:17:54.308Z,33.90
2018-12-20T12:18:53.104Z,33.90
2018-12-20T12:19:51.998Z,33.00
2018-12-20T12:20:53.366Z,33.50
2018-12-20T12:23:06.578Z,33.10
2018-12-20T12:27:07.896Z,34.20
2018-12-20T12:30:00.083Z,34.00
2018-12-20T12:31:02.158Z,33.00
2018-12-20T12:37:42.525Z,32.70
2018-12-20T12:42:30.542Z,31.50
2018-12-20T12:49:51.030Z,31.40
2018-12-20T12:52:01.028Z,31.20
2018-12-20T12:53:01.141Z,31.40
2018-12-20T12:54:01.659Z,31.00
2018-12-20T12:55:01.478Z,30.90
2018-12-20T12:57:22.363Z,31.30
2018-12-20T13:03:36.062Z,31.00
2018-12-20T13:04:35.977Z,31.60
2018-12-20T13:05:36.006Z,31.00
2018-12-20T13:06:35.923Z,30.60
2018-12-20T13:07:35.909Z,30.30
2018-12-20T13:08:35.895Z,31.40
2018-12-20T13:09:36.815Z,30.90
2018-12-20T13:10:36.054Z,30.90
2018-12-20T13:11:35.872Z,31.00
2018-12-20T13:12:35.884Z,31.40
2018-12-20T13:13:45.922Z,30.70
2018-12-20T13:14:35.825Z,30.20
2018-12-20T13:15:35.846Z,30.30
2018-12-20T13:16:35.855Z,30.70
2018-12-20T13:17:35.940Z,30.80
2018-12-20T13:18:35.802Z,31.10
2018-12-20T13:19:35.797Z,31.60
2018-12-20T13:20:35.781Z,31.30
2018-12-20T13:21:35.805Z,30.80
2018-12-20T13:22:35.762Z,30.80
2018-12-20T13:23:35.765Z,31.30
2018-12-20T13:24:35.721Z,30.00
2018-12-20T13:25:35.711Z,30.20
2018-12-20T13:26:35.723Z,30.70
2018-12-20T13:27:35.700Z,29.90
2018-12-20T13:28:35.752Z,30.30
2018-12-20T13:29:35.696Z,30.50
2018-12-20T13:30:35.693Z,30.30
2018-12-20T13:31:35.680Z,31.10
2018-12-20T13:32:35.682Z,31.10
2018-12-20T13:33:35.670Z,31.00
2018-12-20T13:34:35.643Z,32.30